Time;durP1;ratioP1;P1;durP2;ratioP2;P2;SDS_P1;SDS_P2;PMS_P1;PMS_P2;Temp;Humidity;BMP_temperature;BMP_pressure;BME280_temperature;BME280_humidity;BME280_pressure;Samples;Min_cycle;Max_cycle;Signal;HPM_P1;HPM_P2
2021/10/10 00:02:10;;;;;;;160.85;71.85;;;;;;;-0.84;75.15;95892.55;1651459;85;21066;-61
2021/10/10 00:04:36;;;;;;;168.72;69.15;;;;;;;-0.87;75.03;95893.80;1648430;87;21042;-60
2021/10/10 00:07:03;;;;;;;138.25;66.87;;;;;;;-0.94;74.88;95899.80;1646494;86;21019;-60
2021/10/10 00:09:29;;;;;;;141.03;65.47;;;;;;;-0.99;75.09;95892.54;1648767;86;21912;-61
2021/10/10 00:11:56;;;;;;;142.98;64.60;;;;;;;-1.01;75.26;95890.72;1647819;86;21536;-61
2021/10/10 00:14:25;;;;;;;146.32;68.15;;;;;;;-0.99;75.38;95891.19;1647947;86;20951;-61
2021/10/10 00:16:51;;;;;;;147.80;68.60;;;;;;;-0.97;75.39;95888.92;1650226;86;21010;-61
2021/10/10 00:19:18;;;;;;;148.45;69.87;;;;;;;-0.93;75.32;95888.44;1651728;86;21133;-61
2021/10/10 00:21:46;;;;;;;130.07;59.00;;;;;;;-0.90;75.27;95884.50;1646303;86;21193;-61
2021/10/10 00:24:12;;;;;;;123.60;60.17;;;;;;;-0.87;75.31;95889.75;1646667;86;20970;-61
2021/10/10 00:26:39;;;;;;;145.77;63.95;;;;;;;-0.85;75.28;95886.13;1622860;85;21183;-61
2021/10/10 00:29:06;;;;;;;137.37;63.02;;;;;;;-0.87;75.12;95885.14;1620024;87;21359;-62
2021/10/10 00:31:32;;;;;;;123.05;56.08;;;;;;;-0.89;74.84;95879.86;1626343;87;21023;-61
2021/10/10 00:33:59;;;;;;;138.57;59.40;;;;;;;-0.92;74.92;95880.56;1620916;87;21157;-61
2021/10/10 00:36:25;;;;;;;132.55;59.83;;;;;;;-0.94;74.98;95874.72;1620047;87;21085;-61
2021/10/10 00:38:52;;;;;;;144.30;62.85;;;;;;;-0.91;75.24;95878.88;1620320;87;21021;-61
2021/10/10 00:41:19;;;;;;;133.03;61.83;;;;;;;-0.84;75.10;95872.84;1633250;87;21028;-61
2021/10/10 00:43:45;;;;;;;127.45;59.20;;;;;;;-0.79;74.80;95880.72;1620878;88;21045;-60
2021/10/10 00:46:14;;;;;;;123.78;57.17;;;;;;;-0.75;74.67;95874.83;1624683;88;21854;-60
2021/10/10 00:48:41;;;;;;;135.03;60.75;;;;;;;-0.72;74.71;95876.83;1623261;87;21536;-61
2021/10/10 00:51:08;;;;;;;132.43;62.75;;;;;;;-0.71;74.65;95875.70;1614687;87;21477;-61
2021/10/10 00:53:36;;;;;;;109.75;53.50;;;;;;;-0.74;74.32;95869.06;1625087;87;21104;-60
2021/10/10 00:56:03;;;;;;;118.93;54.50;;;;;;;-0.77;74.36;95864.36;1617863;87;20977;-58
2021/10/10 00:58:30;;;;;;;117.93;54.83;;;;;;;-0.86;74.27;95871.86;1611668;87;21077;-61
2021/10/10 01:00:57;;;;;;;128.45;58.20;;;;;;;-1.01;74.24;95869.13;1611460;87;21037;-61
2021/10/10 01:03:24;;;;;;;126.00;55.70;;;;;;;-1.16;74.45;95866.62;1610276;87;21009;-60
2021/10/10 01:05:53;;;;;;;126.62;54.58;;;;;;;-1.25;74.75;95867.35;1617928;87;21443;-60
2021/10/10 01:08:19;;;;;;;126.25;54.20;;;;;;;-1.33;75.05;95863.45;1624748;87;21108;-59
2021/10/10 01:10:50;;;;;;;104.35;53.87;;;;;;;-1.36;75.22;95868.20;1619271;86;21021;-60
2021/10/10 01:13:17;;;;;;;118.28;52.35;;;;;;;-1.39;75.44;95870.21;1617864;87;21064;-61
2021/10/10 01:15:44;;;;;;;106.30;52.00;;;;;;;-1.40;75.60;95865.39;1623209;87;20973;-61
2021/10/10 01:18:12;;;;;;;117.53;51.50;;;;;;;-1.40;75.72;95865.94;1617575;87;20986;-60
2021/10/10 01:20:46;;;;;;;101.80;47.48;;;;;;;-1.42;75.82;95864.16;1603944;86;21018;-61
2021/10/10 01:23:13;;;;;;;105.07;48.38;;;;;;;-1.41;75.76;95866.52;1642997;87;21135;-61
2021/10/10 01:25:41;;;;;;;98.17;48.58;;;;;;;-1.45;75.82;95860.25;1644848;87;21023;-61
2021/10/10 01:28:08;;;;;;;117.15;49.18;;;;;;;-1.46;75.90;95864.08;1644645;87;21582;-61
2021/10/10 01:30:35;;;;;;;111.70;51.42;;;;;;;-1.47;76.05;95865.77;1644492;85;21565;-61
2021/10/10 01:33:07;;;;;;;111.35;52.62;;;;;;;-1.49;76.01;95853.95;1644700;85;21019;-61
2021/10/10 01:35:37;;;;;;;117.03;53.00;;;;;;;-1.48;76.12;95862.84;1644788;87;21095;-60
2021/10/10 01:38:05;;;;;;;110.40;56.13;;;;;;;-1.46;76.17;95857.88;1644990;87;20995;-61
2021/10/10 01:40:34;;;;;;;104.75;48.80;;;;;;;-1.44;76.00;95859.12;1644796;87;21035;-61
2021/10/10 01:43:07;;;;;;;108.03;51.48;;;;;;;-1.45;76.09;95853.50;1644672;87;21511;-61
2021/10/10 01:45:33;;;;;;;106.32;50.38;;;;;;;-1.47;75.78;95859.02;1644762;87;21424;-61
2021/10/10 01:48:00;;;;;;;115.50;50.70;;;;;;;-1.55;75.75;95858.58;1644596;87;21150;-61
2021/10/10 01:50:27;;;;;;;107.45;49.10;;;;;;;-1.59;75.89;95863.09;1644445;87;21074;-62
2021/10/10 01:52:54;;;;;;;115.72;49.60;;;;;;;-1.63;75.98;95856.27;1645049;87;21471;-62
2021/10/10 01:55:20;;;;;;;105.10;50.92;;;;;;;-1.63;76.01;95860.32;1644816;87;21091;-62
2021/10/10 01:57:47;;;;;;;109.63;48.78;;;;;;;-1.61;76.11;95857.27;1644798;87;21039;-61
2021/10/10 02:00:15;;;;;;;101.82;47.17;;;;;;;-1.58;76.00;95849.83;1644657;86;21144;-62
2021/10/10 02:02:42;;;;;;;95.83;46.85;;;;;;;-1.61;76.04;95847.82;1644474;86;21007;-61
2021/10/10 02:05:10;;;;;;;93.50;47.73;;;;;;;-1.63;76.13;95855.48;1644433;87;21039;-61
2021/10/10 02:07:38;;;;;;;95.62;47.30;;;;;;;-1.64;76.15;95849.86;1644651;85;21031;-61
2021/10/10 02:10:06;;;;;;;102.15;47.13;;;;;;;-1.60;76.22;95857.48;1644686;87;20987;-61
2021/10/10 02:12:36;;;;;;;92.30;46.55;;;;;;;-1.56;76.20;95857.02;1653675;85;21117;-62
2021/10/10 02:15:05;;;;;;;104.17;51.18;;;;;;;-1.51;76.05;95852.74;1644799;87;21028;-62
2021/10/10 02:17:32;;;;;;;87.15;45.60;;;;;;;-1.47;75.84;95857.66;1644886;87;21035;-63
2021/10/10 02:19:58;;;;;;;98.70;47.00;;;;;;;-1.50;75.75;95863.17;1644667;86;21042;-62
2021/10/10 02:22:25;;;;;;;101.65;48.63;;;;;;;-1.47;75.81;95857.66;1644826;87;20999;-62
2021/10/10 02:24:52;;;;;;;108.32;46.98;;;;;;;-1.44;75.71;95855.63;1644525;87;21147;-61
2021/10/10 02:27:19;;;;;;;97.37;47.73;;;;;;;-1.39;75.60;95859.41;1644771;87;21030;-62
2021/10/10 02:29:46;;;;;;;92.80;42.93;;;;;;;-1.40;75.37;95851.10;1644435;87;20971;-61
2021/10/10 02:32:12;;;;;;;103.53;55.05;;;;;;;-1.42;75.57;95854.71;1644814;85;20988;-61
2021/10/10 02:34:38;;;;;;;84.85;41.85;;;;;;;-1.42;75.48;95850.66;1644557;87;21038;-62
2021/10/10 02:37:05;;;;;;;81.25;41.55;;;;;;;-1.49;75.43;95847.20;1644717;87;21951;-61
2021/10/10 02:39:32;;;;;;;92.25;43.68;;;;;;;-1.51;75.42;95850.05;1644416;87;21452;-61
2021/10/10 02:41:59;;;;;;;89.97;46.33;;;;;;;-1.59;75.29;95850.95;1656443;85;21058;-60
2021/10/10 02:44:26;;;;;;;91.22;42.25;;;;;;;-1.66;75.34;95851.54;1660605;85;21029;-61
2021/10/10 02:46:52;;;;;;;93.52;43.90;;;;;;;-1.73;75.51;95849.23;1647307;86;21010;-61
2021/10/10 02:49:19;;;;;;;89.37;42.95;;;;;;;-1.76;75.69;95851.23;1644394;85;21173;-60
2021/10/10 02:51:47;;;;;;;92.40;42.33;;;;;;;-1.78;75.88;95848.10;1644571;87;21085;-61
2021/10/10 02:54:14;;;;;;;89.80;44.80;;;;;;;-1.76;75.93;95843.95;1644493;87;21027;-61
2021/10/10 02:56:41;;;;;;;97.00;43.55;;;;;;;-1.74;75.87;95846.28;1644618;86;21023;-61
2021/10/10 02:59:07;;;;;;;96.55;45.38;;;;;;;-1.73;75.74;95847.30;1644819;87;21550;-60
2021/10/10 03:01:34;;;;;;;97.25;44.10;;;;;;;-1.71;75.50;95848.33;1644537;85;21136;-62
2021/10/10 03:04:01;;;;;;;92.57;44.85;;;;;;;-1.69;75.48;95846.84;1644330;87;21018;-61
2021/10/10 03:06:28;;;;;;;98.90;45.45;;;;;;;-1.61;75.62;95839.18;1644516;87;21027;-61
2021/10/10 03:08:55;;;;;;;101.80;45.25;;;;;;;-1.49;75.51;95840.45;1644311;87;21019;-62
2021/10/10 03:11:22;;;;;;;82.92;40.65;;;;;;;-1.42;74.92;95841.22;1644558;87;21471;-61
2021/10/10 03:13:48;;;;;;;75.22;37.05;;;;;;;-1.45;74.66;95836.52;1644820;87;21095;-62
2021/10/10 03:16:15;;;;;;;90.50;44.00;;;;;;;-1.55;74.57;95835.65;1644893;87;21015;-60
2021/10/10 03:18:42;;;;;;;83.67;39.10;;;;;;;-1.67;74.79;95839.77;1644923;87;21043;-61
2021/10/10 03:21:08;;;;;;;88.72;40.23;;;;;;;-1.77;74.89;95841.03;1644902;87;21491;-61
2021/10/10 03:23:35;;;;;;;87.40;39.03;;;;;;;-1.86;74.99;95832.06;1644595;85;21046;-61
2021/10/10 03:26:02;;;;;;;90.03;43.92;;;;;;;-1.95;75.18;95828.16;1645038;87;21499;-61
2021/10/10 03:28:28;;;;;;;100.33;43.75;;;;;;;-2.03;75.41;95837.17;1644673;85;21073;-60
2021/10/10 03:30:55;;;;;;;90.80;42.53;;;;;;;-2.08;75.66;95829.88;1644678;87;21467;-60
2021/10/10 03:33:22;;;;;;;75.80;37.10;;;;;;;-2.08;75.93;95836.07;1644851;87;21037;-61
2021/10/10 03:35:49;;;;;;;81.02;39.92;;;;;;;-2.04;75.86;95831.56;1644735;85;21047;-61
2021/10/10 03:38:16;;;;;;;87.85;43.78;;;;;;;-2.07;75.72;95831.45;1644874;85;21141;-62
2021/10/10 03:40:42;;;;;;;82.33;42.53;;;;;;;-2.09;75.71;95831.81;1644796;87;20984;-61
2021/10/10 03:43:09;;;;;;;93.10;41.02;;;;;;;-2.07;75.71;95831.45;1644594;87;21035;-60
2021/10/10 03:45:35;;;;;;;91.75;39.83;;;;;;;-2.04;75.63;95824.83;1657329;85;21030;-61
2021/10/10 03:48:02;;;;;;;90.75;43.78;;;;;;;-1.99;75.64;95822.46;1657240;86;21046;-60
2021/10/10 03:50:29;;;;;;;88.62;42.13;;;;;;;-1.95;75.48;95826.81;1645323;86;21156;-61
2021/10/10 03:52:56;;;;;;;81.20;39.45;;;;;;;-1.94;75.55;95828.38;1647433;85;21479;-61
2021/10/10 03:55:32;;;;;;;76.45;39.90;;;;;;;-1.92;75.52;95821.30;1644825;86;20967;-61
2021/10/10 03:57:55;;;;;;;79.20;37.85;;;;;;;-1.93;75.46;95817.81;1643987;87;21043;-61
2021/10/10 04:00:22;;;;;;;74.92;37.70;;;;;;;-1.94;75.28;95814.89;1644847;87;21491;-64
2021/10/10 04:02:50;;;;;;;69.27;35.52;;;;;;;-2.02;75.17;95811.78;1645083;85;21519;-66
2021/10/10 04:07:43;;;;;;;82.62;39.05;;;;;;;-2.14;75.40;95813.73;1644948;87;21024;-60
2021/10/10 04:10:10;;;;;;;72.40;37.30;;;;;;;-2.15;75.50;95806.77;1644799;85;21027;-62
2021/10/10 04:12:37;;;;;;;83.50;38.23;;;;;;;-2.14;75.41;95810.46;1644931;87;21118;-61
2021/10/10 04:15:05;;;;;;;80.87;38.40;;;;;;;-2.09;75.44;95809.45;1644827;85;21077;-61
2021/10/10 04:17:32;;;;;;;79.97;38.65;;;;;;;-1.98;75.69;95818.06;1645304;85;21027;-62
2021/10/10 04:19:58;;;;;;;81.85;39.33;;;;;;;-1.88;75.44;95817.59;1644721;85;21035;-61
2021/10/10 04:22:25;;;;;;;82.85;38.85;;;;;;;-1.82;75.18;95808.13;1644776;87;21032;-62
2021/10/10 04:24:52;;;;;;;81.47;38.38;;;;;;;-1.75;74.79;95812.36;1644630;85;21031;-63
2021/10/10 04:27:18;;;;;;;72.08;37.45;;;;;;;-1.74;74.52;95822.02;1644898;87;21111;-62
2021/10/10 04:29:45;;;;;;;75.60;38.90;;;;;;;-1.71;74.47;95820.77;1644387;87;21012;-62
2021/10/10 04:32:11;;;;;;;83.40;39.60;;;;;;;-1.71;74.38;95820.01;1644813;87;20985;-63
2021/10/10 04:34:37;;;;;;;80.95;39.88;;;;;;;-1.67;74.25;95827.62;1644668;87;21070;-62
2021/10/10 04:37:06;;;;;;;84.22;38.73;;;;;;;-1.66;74.02;95819.17;1645027;87;20991;-62
2021/10/10 04:39:32;;;;;;;82.25;40.83;;;;;;;-1.66;73.96;95822.45;1644623;87;21881;-62
2021/10/10 04:41:59;;;;;;;84.83;39.30;;;;;;;-1.70;73.96;95825.62;1644527;85;21110;-63
2021/10/10 04:44:26;;;;;;;83.05;42.45;;;;;;;-1.72;73.91;95823.83;1644661;87;20983;-63
2021/10/10 04:46:52;;;;;;;95.55;41.77;;;;;;;-1.75;73.94;95822.59;1644808;85;21106;-62
2021/10/10 04:49:19;;;;;;;90.55;40.40;;;;;;;-1.79;74.17;95825.55;1644426;87;21050;-62
2021/10/10 04:51:46;;;;;;;84.05;41.40;;;;;;;-1.78;74.14;95825.76;1644587;86;21144;-63
2021/10/10 04:54:12;;;;;;;83.65;40.52;;;;;;;-1.77;74.21;95832.72;1644533;86;20979;-63
2021/10/10 04:56:40;;;;;;;80.47;40.17;;;;;;;-1.74;74.29;95825.51;1644602;87;21043;-61
2021/10/10 04:59:07;;;;;;;83.12;39.05;;;;;;;-1.71;74.17;95826.75;1644711;87;21559;-66
2021/10/10 05:01:34;;;;;;;96.25;40.52;;;;;;;-1.64;74.16;95824.23;1650916;85;20972;-63
2021/10/10 05:04:01;;;;;;;79.58;39.83;;;;;;;-1.60;73.77;95822.41;1644372;87;21040;-62
2021/10/10 05:06:27;;;;;;;93.55;42.08;;;;;;;-1.57;73.54;95825.22;1644748;85;21070;-63
2021/10/10 05:08:54;;;;;;;97.92;43.85;;;;;;;-1.53;73.47;95821.28;1644698;87;20983;-62
2021/10/10 05:11:20;;;;;;;93.40;43.80;;;;;;;-1.49;73.30;95824.85;1644469;85;21023;-63
2021/10/10 05:13:48;;;;;;;102.15;48.10;;;;;;;-1.47;73.30;95823.94;1644429;87;21051;-61
2021/10/10 05:16:14;;;;;;;88.72;42.43;;;;;;;-1.47;73.53;95823.94;1644916;86;21747;-62
2021/10/10 05:18:41;;;;;;;87.60;46.18;;;;;;;-1.44;73.39;95823.24;1644646;86;20998;-62
2021/10/10 05:21:08;;;;;;;91.32;46.50;;;;;;;-1.45;73.42;95820.33;1639341;86;21095;-62
2021/10/10 05:23:34;;;;;;;75.92;37.33;;;;;;;-1.45;73.41;95818.43;1620104;86;21098;-63
2021/10/10 05:26:02;;;;;;;108.60;50.28;;;;;;;-1.47;73.41;95825.29;1643685;85;20991;-62
2021/10/10 05:28:29;;;;;;;140.20;66.40;;;;;;;-1.57;73.63;95825.77;1629644;86;21781;-62
2021/10/10 05:30:56;;;;;;;113.10;54.95;;;;;;;-1.63;73.72;95825.25;1647773;86;21133;-62
2021/10/10 05:33:23;;;;;;;88.78;45.25;;;;;;;-1.70;73.85;95820.22;1652578;86;21019;-62
2021/10/10 05:35:50;;;;;;;115.10;51.58;;;;;;;-1.75;74.03;95829.34;1651472;86;21014;-64
2021/10/10 05:38:16;;;;;;;110.22;53.92;;;;;;;-1.76;74.29;95824.27;1648368;86;21011;-62
2021/10/10 05:40:43;;;;;;;91.70;47.27;;;;;;;-1.74;74.30;95830.91;1649576;86;21123;-63
2021/10/10 05:43:10;;;;;;;104.85;53.13;;;;;;;-1.73;74.35;95821.69;1651246;87;21004;-62
2021/10/10 05:45:37;;;;;;;73.47;41.10;;;;;;;-1.69;74.55;95823.91;1649444;86;21045;-62
2021/10/10 05:48:05;;;;;;;83.00;43.50;;;;;;;-1.57;74.86;95825.77;1649731;86;21041;-63
2021/10/10 05:50:32;;;;;;;83.72;43.58;;;;;;;-1.50;74.74;95820.59;1647171;86;21014;-63
2021/10/10 05:53:06;;;;;;;74.30;46.30;;;;;;;-1.45;74.89;95820.33;1648971;86;21146;-62
2021/10/10 05:55:27;;;;;;;87.15;48.92;;;;;;;-1.42;75.08;95819.64;1647170;86;21047;-63
2021/10/10 05:57:54;;;;;;;79.53;41.55;;;;;;;-1.36;75.22;95815.58;1646371;86;21034;-63
2021/10/10 06:00:21;;;;;;;81.00;45.20;;;;;;;-1.32;75.26;95813.17;1648186;86;21018;-63
2021/10/10 06:02:48;;;;;;;69.30;38.42;;;;;;;-1.26;75.47;95822.60;1648011;85;21038;-63
2021/10/10 06:05:15;;;;;;;80.20;42.38;;;;;;;-1.17;75.55;95822.44;1648039;86;21160;-63
2021/10/10 06:07:43;;;;;;;72.03;35.60;;;;;;;-1.12;75.50;95816.78;1650987;86;21263;-62
2021/10/10 06:10:12;;;;;;;52.40;27.77;;;;;;;-1.10;75.61;95808.53;1650625;86;21106;-63
2021/10/10 06:12:40;;;;;;;87.95;42.53;;;;;;;-1.03;75.72;95810.63;1646508;86;21029;-62
2021/10/10 06:15:08;;;;;;;87.60;44.53;;;;;;;-0.93;75.82;95808.20;1649315;86;21617;-62
2021/10/10 06:17:35;;;;;;;84.30;48.17;;;;;;;-0.84;75.79;95801.27;1648714;86;21866;-61
2021/10/10 06:20:05;;;;;;;90.20;46.10;;;;;;;-0.72;75.72;95811.44;1638163;85;21424;-63
2021/10/10 06:22:34;;;;;;;105.97;51.42;;;;;;;-0.63;75.81;95812.03;1636272;87;20964;-64
2021/10/10 06:25:00;;;;;;;95.60;47.85;;;;;;;-0.53;75.67;95802.61;1643930;86;21038;-63
2021/10/10 06:27:27;;;;;;;81.20;42.03;;;;;;;-0.41;75.60;95805.98;1632643;87;21542;-63
2021/10/10 06:29:54;;;;;;;69.12;38.25;;;;;;;-0.23;75.57;95805.05;1636232;86;21201;-63
2021/10/10 06:32:20;;;;;;;73.87;33.05;;;;;;;-0.07;75.25;95805.80;1633564;87;21007;-64
2021/10/10 06:34:48;;;;;;;60.70;32.35;;;;;;;0.01;75.08;95796.89;1635355;86;21111;-62
2021/10/10 06:37:15;;;;;;;60.08;29.20;;;;;;;0.13;75.05;95799.48;1635839;87;20992;-62
2021/10/10 06:39:42;;;;;;;58.95;32.33;;;;;;;0.30;75.00;95796.35;1636105;87;21426;-62
2021/10/10 06:42:09;;;;;;;80.57;35.78;;;;;;;0.44;74.71;95790.43;1635439;87;21135;-62
2021/10/10 06:44:36;;;;;;;71.45;31.37;;;;;;;0.61;74.55;95789.99;1635642;87;21424;-63
2021/10/10 06:47:03;;;;;;;60.08;29.05;;;;;;;0.75;74.17;95789.67;1635986;86;21000;-64
2021/10/10 06:49:30;;;;;;;56.50;29.85;;;;;;;0.92;73.97;95789.80;1635108;87;21027;-63
2021/10/10 06:51:57;;;;;;;57.30;33.35;;;;;;;1.11;73.47;95785.09;1635358;86;21177;-63
2021/10/10 06:54:24;;;;;;;64.80;34.03;;;;;;;1.26;73.08;95784.19;1639619;86;21150;-62
2021/10/10 06:56:53;;;;;;;69.75;33.60;;;;;;;1.44;72.81;95787.97;1635527;87;21133;-63
2021/10/10 06:59:20;;;;;;;60.78;30.20;;;;;;;1.58;72.30;95781.97;1640604;87;21229;-63
2021/10/10 07:01:48;;;;;;;59.95;28.12;;;;;;;1.72;72.09;95788.38;1637982;86;21395;-63
2021/10/10 07:04:15;;;;;;;46.28;26.85;;;;;;;1.87;71.89;95782.81;1630515;87;20999;-63
2021/10/10 07:06:43;;;;;;;52.27;26.40;;;;;;;1.98;71.37;95778.89;1639337;87;21435;-63
2021/10/10 07:09:11;;;;;;;57.10;30.75;;;;;;;2.02;71.32;95778.36;1635087;86;21506;-64
2021/10/10 07:11:39;;;;;;;53.48;29.63;;;;;;;2.08;71.05;95778.23;1637564;87;21043;-64
2021/10/10 07:14:06;;;;;;;60.10;34.48;;;;;;;2.14;70.82;95782.22;1635352;87;21024;-64
2021/10/10 07:16:35;;;;;;;51.23;29.77;;;;;;;2.21;70.73;95776.86;1638993;86;21027;-62
2021/10/10 07:19:02;;;;;;;50.88;28.55;;;;;;;2.35;70.65;95768.31;1638283;85;21123;-60
2021/10/10 07:26:37;;;;;;;53.68;29.12;;;;;;;2.64;69.60;95769.42;1644824;86;21573;-62
2021/10/10 07:29:05;;;;;;;55.60;29.77;;;;;;;2.69;69.60;95767.16;1646964;87;20962;-63
2021/10/10 07:31:32;;;;;;;55.33;31.05;;;;;;;2.73;69.34;95762.53;1626642;87;21912;-62
2021/10/10 07:34:00;;;;;;;56.70;33.88;;;;;;;2.79;69.35;95765.70;1648566;86;21010;-62
2021/10/10 07:36:27;;;;;;;55.28;31.35;;;;;;;2.87;69.28;95757.84;1648831;87;21109;-63
2021/10/10 07:38:55;;;;;;;53.85;27.77;;;;;;;3.02;69.33;95753.52;1648794;87;20974;-62
2021/10/10 07:41:22;;;;;;;60.75;29.75;;;;;;;3.21;69.10;95753.30;1648665;87;21007;-62
2021/10/10 07:43:49;;;;;;;47.70;28.35;;;;;;;3.37;68.81;95758.48;1648392;87;21169;-62
2021/10/10 07:46:33;;;;;;;52.65;32.63;;;;;;;3.49;68.61;95747.52;1648759;87;20966;-64
2021/10/10 07:48:48;;;;;;;59.35;31.95;;;;;;;3.59;68.32;95748.75;1644642;86;21538;-63
2021/10/10 07:51:16;;;;;;;45.38;25.80;;;;;;;3.72;68.28;95746.70;1648628;87;21446;-62
2021/10/10 07:53:44;;;;;;;44.23;26.17;;;;;;;3.92;67.97;95752.67;1648695;86;21438;-62
2021/10/10 07:56:11;;;;;;;47.65;25.27;;;;;;;4.06;67.57;95750.03;1648784;86;21179;-63
2021/10/10 07:58:37;;;;;;;46.33;25.45;;;;;;;4.20;67.45;95744.66;1648986;85;21133;-63
2021/10/10 08:01:04;;;;;;;55.78;29.02;;;;;;;4.37;67.22;95742.57;1644581;87;21083;-61
2021/10/10 08:03:31;;;;;;;37.05;23.55;;;;;;;4.52;66.68;95746.34;1622229;87;21012;-64
2021/10/10 08:05:58;;;;;;;48.30;28.10;;;;;;;4.66;66.33;95745.05;1648840;87;21042;-62
2021/10/10 08:08:26;;;;;;;53.60;27.25;;;;;;;4.82;66.08;95740.00;1649163;87;21178;-64
2021/10/10 08:10:53;;;;;;;40.90;24.15;;;;;;;5.04;65.92;95736.73;1646546;87;20975;-63
2021/10/10 08:13:20;;;;;;;37.78;21.90;;;;;;;5.23;65.23;95732.47;1650082;86;20958;-61
2021/10/10 08:15:47;;;;;;;34.95;20.15;;;;;;;5.40;64.42;95732.30;1648630;87;21498;-61
2021/10/10 08:18:14;;;;;;;36.65;20.17;;;;;;;5.53;63.72;95721.17;1644185;87;21015;-62
2021/10/10 08:20:41;;;;;;;35.65;19.42;;;;;;;5.68;63.17;95725.45;1642648;87;21164;-65
2021/10/10 08:23:09;;;;;;;34.60;20.97;;;;;;;5.85;62.70;95720.02;1640208;86;21581;-63
2021/10/10 08:25:36;;;;;;;33.58;19.65;;;;;;;6.04;62.08;95720.94;1637220;87;20964;-62
2021/10/10 08:28:04;;;;;;;37.48;20.35;;;;;;;6.23;61.54;95717.77;1639551;87;21022;-62
2021/10/10 08:30:31;;;;;;;31.73;18.42;;;;;;;6.40;61.00;95710.66;1636284;86;21134;-63
2021/10/10 08:32:59;;;;;;;31.42;18.80;;;;;;;6.56;60.21;95715.84;1639622;86;21254;-63
2021/10/10 08:35:26;;;;;;;26.70;17.65;;;;;;;6.74;59.85;95703.48;1637473;87;21057;-62
2021/10/10 08:37:53;;;;;;;41.13;19.52;;;;;;;6.91;59.39;95698.49;1632949;87;20984;-63
2021/10/10 08:40:20;;;;;;;32.75;19.50;;;;;;;7.11;59.49;95698.92;1639955;86;21114;-62
2021/10/10 08:42:50;;;;;;;36.75;20.17;;;;;;;7.31;59.24;95700.74;1638932;87;21122;-61
2021/10/10 08:45:19;;;;;;;29.48;17.45;;;;;;;7.46;58.91;95700.03;1638386;86;21125;-62
2021/10/10 08:47:45;;;;;;;42.80;18.77;;;;;;;7.59;58.05;95695.05;1638271;87;21503;-62
2021/10/10 08:50:19;;;;;;;33.18;17.27;;;;;;;7.72;57.37;95687.10;1635581;87;20994;-63
2021/10/10 08:52:47;;;;;;;31.35;17.85;;;;;;;7.89;56.77;95688.28;1639768;85;21098;-65
2021/10/10 08:55:15;;;;;;;31.95;16.23;;;;;;;8.08;56.56;95689.06;1637171;87;20987;-63
2021/10/10 08:57:42;;;;;;;32.25;17.30;;;;;;;8.29;55.75;95681.23;1638942;85;21143;-63
2021/10/10 09:00:17;;;;;;;26.00;16.57;;;;;;;8.49;55.13;95680.80;1643488;86;21571;-64
2021/10/10 09:02:45;;;;;;;26.68;16.52;;;;;;;8.74;55.19;95672.44;1640501;86;21102;-63
2021/10/10 09:05:12;;;;;;;28.90;16.25;;;;;;;9.09;54.66;95676.05;1640419;87;21050;-62
2021/10/10 09:07:39;;;;;;;23.45;14.75;;;;;;;9.43;53.32;95672.58;1640863;86;21079;-63
2021/10/10 09:10:28;;;;;;;30.75;13.62;;;;;;;9.72;52.03;95663.44;1643451;87;23133;-62
2021/10/10 09:13:09;;;;;;;26.75;10.40;;;;;;;10.05;51.13;95660.31;1621755;87;21093;-63
2021/10/10 09:15:41;;;;;;;25.05;9.35;;;;;;;10.34;49.27;95651.09;1624501;88;20987;-63
2021/10/10 09:18:09;;;;;;;18.55;9.50;;;;;;;10.56;47.59;95648.70;1622424;87;21061;-63
2021/10/10 09:20:43;;;;;;;17.80;9.50;;;;;;;10.73;47.43;95646.34;1635705;87;20982;-62
2021/10/10 09:23:21;;;;;;;12.60;7.75;;;;;;;10.98;47.18;95652.08;1642597;86;21957;-63
2021/10/10 09:25:59;;;;;;;13.00;8.63;;;;;;;11.26;46.04;95645.93;1632157;86;21035;-63
2021/10/10 09:28:28;;;;;;;12.65;7.97;;;;;;;11.48;44.96;95648.34;1636694;87;20991;-63
2021/10/10 09:30:58;;;;;;;17.48;9.25;;;;;;;11.74;44.05;95648.69;1634180;87;21503;-63
2021/10/10 09:33:46;;;;;;;19.23;10.13;;;;;;;12.03;43.37;95644.59;1637906;87;21092;-64
2021/10/10 09:36:22;;;;;;;16.82;8.23;;;;;;;12.39;41.78;95639.66;1640542;87;21144;-63
2021/10/10 09:39:07;;;;;;;15.90;9.15;;;;;;;12.78;40.88;95637.34;1638736;87;21026;-64
2021/10/10 09:41:39;;;;;;;15.90;8.58;;;;;;;13.30;39.24;95636.36;1639603;87;21042;-64
2021/10/10 09:44:14;;;;;;;13.38;7.40;;;;;;;13.98;38.66;95636.48;1642586;87;21054;-63
2021/10/10 09:46:42;;;;;;;14.73;7.35;;;;;;;14.53;37.62;95622.05;1637689;87;21135;-62
2021/10/10 09:49:26;;;;;;;21.10;9.75;;;;;;;15.09;35.67;95614.38;1639016;87;21936;-64
2021/10/10 09:52:12;;;;;;;16.90;7.35;;;;;;;15.54;35.19;95610.40;1640157;87;21039;-62
2021/10/10 09:54:57;;;;;;;56.18;31.48;;;;;;;16.00;34.99;95612.05;1643395;87;21551;-62
2021/10/10 09:57:27;;;;;;;22.58;12.28;;;;;;;16.52;33.00;95606.23;1636856;87;21110;-62
2021/10/10 09:59:55;;;;;;;14.33;7.40;;;;;;;17.06;32.92;95601.95;1635812;86;21506;-63
2021/10/10 10:02:40;;;;;;;10.70;6.75;;;;;;;17.56;31.80;95606.71;1638188;86;21133;-64
2021/10/10 10:05:08;;;;;;;12.85;6.62;;;;;;;17.97;31.23;95603.84;1622043;87;21103;-64
2021/10/10 10:07:35;;;;;;;14.43;7.22;;;;;;;18.37;30.54;95596.63;1616241;86;21451;-63
2021/10/10 10:10:06;;;;;;;10.23;6.67;;;;;;;18.70;29.80;95600.05;1635993;87;20968;-63
2021/10/10 10:12:35;;;;;;;13.95;7.17;;;;;;;19.02;29.40;95596.30;1635470;87;21028;-63
2021/10/10 10:15:04;;;;;;;13.95;6.62;;;;;;;19.46;28.22;95598.47;1600603;87;21000;-63
2021/10/10 10:17:32;;;;;;;12.10;6.17;;;;;;;19.93;27.93;95600.92;1639243;87;21510;-64
2021/10/10 10:20:01;;;;;;;13.38;6.08;;;;;;;20.20;27.39;95589.39;1636945;85;21511;-63
2021/10/10 10:22:33;;;;;;;13.03;5.87;;;;;;;20.46;26.71;95588.19;1636976;87;21096;-61
2021/10/10 10:25:02;;;;;;;13.72;6.37;;;;;;;20.68;26.17;95581.44;1639018;87;21165;-63
2021/10/10 10:27:29;;;;;;;19.67;11.30;;;;;;;20.76;25.98;95581.78;1646061;86;21139;-62
2021/10/10 10:29:57;;;;;;;12.47;6.40;;;;;;;20.94;26.13;95571.69;1636512;87;21015;-62
2021/10/10 10:32:25;;;;;;;13.53;6.15;;;;;;;21.21;25.55;95578.16;1635044;87;21074;-63
2021/10/10 10:35:07;;;;;;;14.18;6.28;;;;;;;21.40;25.52;95575.13;1636778;87;21134;-61
2021/10/10 10:37:50;;;;;;;9.18;6.30;;;;;;;21.70;25.37;95573.60;1630217;86;20980;-63
2021/10/10 10:40:27;;;;;;;11.65;6.10;;;;;;;22.00;24.24;95572.02;1637415;87;21472;-61
2021/10/10 10:42:56;;;;;;;13.75;6.50;;;;;;;22.26;24.25;95571.37;1634773;87;21083;-61
2021/10/10 10:45:34;;;;;;;11.43;6.80;;;;;;;22.32;24.09;95563.73;1633636;87;21100;-60
2021/10/10 10:48:11;;;;;;;11.53;6.58;;;;;;;22.51;23.94;95567.66;1637296;87;21027;-62
2021/10/10 10:50:42;;;;;;;11.57;6.12;;;;;;;22.77;23.34;95569.67;1637920;87;21548;-62
2021/10/10 10:53:13;;;;;;;8.78;5.83;;;;;;;23.07;23.47;95559.52;1639988;87;22023;-61
2021/10/10 10:55:44;;;;;;;14.93;5.80;;;;;;;23.05;23.28;95559.23;1640347;86;21121;-60
2021/10/10 10:58:13;;;;;;;13.32;6.60;;;;;;;23.16;23.44;95557.89;1648893;86;21475;-61
2021/10/10 11:00:45;;;;;;;15.35;6.78;;;;;;;23.45;23.23;95556.61;1646683;86;21494;-63
2021/10/10 11:03:27;;;;;;;16.67;6.33;;;;;;;23.84;22.02;95541.27;1646788;85;20966;-61
2021/10/10 11:06:01;;;;;;;13.98;6.20;;;;;;;24.06;22.69;95546.17;1646776;86;21112;-61
2021/10/10 11:08:35;;;;;;;12.00;6.12;;;;;;;24.41;21.99;95548.37;1645575;85;21117;-63
2021/10/10 11:11:15;;;;;;;13.75;6.92;;;;;;;24.54;22.04;95544.38;1649428;87;21014;-61
2021/10/10 11:14:02;;;;;;;14.65;6.78;;;;;;;24.70;21.58;95544.28;1646243;86;21078;-62
2021/10/10 11:16:30;;;;;;;9.43;5.92;;;;;;;24.75;21.83;95537.10;1635165;86;20971;-61
2021/10/10 11:19:05;;;;;;;11.83;5.80;;;;;;;24.70;21.23;95532.25;1630161;86;21115;-62
2021/10/10 11:21:39;;;;;;;14.70;6.72;;;;;;;24.59;21.60;95537.95;1647827;85;21023;-61
2021/10/10 11:24:19;;;;;;;13.55;7.50;;;;;;;24.47;21.44;95537.84;1622656;87;21090;-64
2021/10/10 11:26:47;;;;;;;22.60;10.72;;;;;;;24.39;21.53;95532.66;1601161;88;21516;-62
2021/10/10 11:29:16;;;;;;;9.33;5.97;;;;;;;24.24;22.08;95539.98;1646538;86;21146;-61
2021/10/10 11:31:47;;;;;;;19.70;6.45;;;;;;;24.23;21.96;95533.48;1648113;85;21180;-62
2021/10/10 11:34:19;;;;;;;13.55;5.22;;;;;;;24.23;20.95;95534.89;1643260;87;20971;-62